Time;durP1;ratioP1;P1;durP2;ratioP2;P2;SDS_P1;SDS_P2;PMS_P1;PMS_P2;Temp;Humidity;BMP_temperature;BMP_pressure;BME280_temperature;BME280_humidity;BME280_pressure;Samples;Min_cycle;Max_cycle;Signal;HPM_P1;HPM_P2
2023/12/30 00:01:10;;;;;;;54.42;25.42;;;;;;;5.38;68.35;100078.56;3126496;28;20049;-68
2023/12/30 00:02:42;;;;;;;58.60;25.52;;;;;;;5.37;68.38;100081.16;3134221;28;20048;-68
2023/12/30 00:04:13;;;;;;;54.63;25.35;;;;;;;5.33;68.36;100069.19;3133941;28;20568;-66
2023/12/30 00:05:45;;;;;;;53.58;23.70;;;;;;;5.33;68.36;100072.63;3133927;28;20530;-68
2023/12/30 00:07:15;;;;;;;52.85;22.98;;;;;;;5.30;68.23;100072.69;3134103;28;20513;-68
2023/12/30 00:08:47;;;;;;;53.47;23.77;;;;;;;5.30;68.29;100074.41;3134188;28;20041;-68
2023/12/30 00:10:18;;;;;;;51.45;23.17;;;;;;;5.27;68.48;100067.56;3133983;28;20478;-68
2023/12/30 00:11:50;;;;;;;53.63;22.80;;;;;;;5.28;68.47;100071.00;3133998;28;20056;-68
2023/12/30 00:13:21;;;;;;;49.08;22.20;;;;;;;5.25;68.26;100067.59;3133843;28;20532;-68
2023/12/30 00:14:54;;;;;;;55.95;22.15;;;;;;;5.23;68.29;100064.22;3133930;28;20052;-67
2023/12/30 00:16:26;;;;;;;50.30;23.00;;;;;;;5.22;68.48;100072.81;3134039;28;20045;-68
2023/12/30 00:17:58;;;;;;;58.63;24.67;;;;;;;5.20;68.37;100079.72;3133905;28;20068;-68
2023/12/30 00:19:29;;;;;;;49.67;21.92;;;;;;;5.20;68.48;100079.72;3133698;28;20045;-68
2023/12/30 00:21:01;;;;;;;60.35;24.25;;;;;;;5.18;68.45;100072.91;3133877;28;20060;-68
2023/12/30 00:22:32;;;;;;;48.85;21.92;;;;;;;5.18;68.60;100080.66;3133898;28;20076;-68
2023/12/30 00:24:04;;;;;;;49.72;24.45;;;;;;;5.15;68.58;100078.97;3133625;28;20049;-67
2023/12/30 00:25:35;;;;;;;52.13;23.90;;;;;;;5.13;68.69;100078.16;3133938;28;20118;-68
2023/12/30 00:27:07;;;;;;;56.50;22.05;;;;;;;5.09;68.76;100080.81;3134081;28;20053;-68
2023/12/30 00:28:37;;;;;;;52.72;23.75;;;;;;;5.09;68.74;100081.69;3133635;28;20478;-68
2023/12/30 00:30:13;;;;;;;54.33;23.48;;;;;;;5.09;68.92;100081.69;3132449;28;20134;-68
2023/12/30 00:31:44;;;;;;;47.38;22.17;;;;;;;5.06;68.90;100086.91;3133947;28;20057;-67
2023/12/30 00:33:15;;;;;;;50.78;23.30;;;;;;;5.05;68.92;100080.00;3134029;28;20045;-67
2023/12/30 00:34:46;;;;;;;53.80;23.73;;;;;;;5.04;68.84;100078.31;3134495;28;20056;-68
2023/12/30 00:36:18;;;;;;;52.33;23.50;;;;;;;5.05;68.87;100086.91;3137644;28;20437;-67
2023/12/30 00:37:50;;;;;;;55.97;23.80;;;;;;;5.03;68.84;100081.78;3134209;28;20525;-67
2023/12/30 00:39:20;;;;;;;52.83;23.50;;;;;;;5.02;68.86;100080.91;3134098;28;20052;-68
2023/12/30 00:40:52;;;;;;;53.63;21.90;;;;;;;5.00;68.79;100076.69;3133694;28;20045;-68
2023/12/30 00:42:23;;;;;;;49.55;24.45;;;;;;;4.98;68.80;100074.13;3133599;28;20041;-67
2023/12/30 00:43:55;;;;;;;54.20;24.52;;;;;;;4.97;68.81;100080.16;3133819;28;20053;-68
2023/12/30 00:45:27;;;;;;;48.63;22.27;;;;;;;4.98;68.96;100078.44;3133870;28;20128;-68
2023/12/30 00:46:59;;;;;;;59.90;24.02;;;;;;;4.95;69.02;100081.06;3133760;28;20573;-68
2023/12/30 00:48:30;;;;;;;52.20;23.30;;;;;;;4.95;69.02;100079.34;3134047;28;20057;-68
2023/12/30 00:50:01;;;;;;;52.63;23.75;;;;;;;4.94;68.99;100081.94;3133345;28;20053;-67
2023/12/30 00:51:32;;;;;;;52.80;22.52;;;;;;;4.92;68.88;100076.81;3133583;28;20057;-69
2023/12/30 00:53:04;;;;;;;54.22;23.20;;;;;;;4.84;68.95;100059.75;3133893;28;20413;-68
2023/12/30 00:54:35;;;;;;;56.88;23.77;;;;;;;4.90;68.87;100069.97;3133648;28;20048;-67
2023/12/30 00:56:07;;;;;;;51.92;23.13;;;;;;;4.89;69.02;100076.88;3133678;28;20056;-68
2023/12/30 00:57:38;;;;;;;57.25;25.00;;;;;;;4.88;68.98;100071.72;3133573;28;20049;-67
2023/12/30 00:59:09;;;;;;;51.67;23.38;;;;;;;4.86;69.04;100074.34;3133503;28;20087;-66
2023/12/30 01:00:42;;;;;;;50.03;22.05;;;;;;;4.86;69.03;100066.59;3133634;28;20072;-69
2023/12/30 01:02:13;;;;;;;46.55;22.33;;;;;;;4.82;69.13;100066.66;3133755;28;20087;-69
2023/12/30 01:03:44;;;;;;;49.60;23.20;;;;;;;4.78;69.15;100077.03;3133669;28;20110;-69
2023/12/30 01:05:16;;;;;;;53.72;22.75;;;;;;;4.77;69.26;100079.66;3133461;28;20149;-68
2023/12/30 01:06:47;;;;;;;57.75;22.50;;;;;;;4.75;69.42;100077.09;3133630;28;20584;-68
2023/12/30 01:08:18;;;;;;;55.88;24.95;;;;;;;4.73;69.42;100084.03;3133610;28;20052;-69
2023/12/30 01:09:49;;;;;;;57.53;24.88;;;;;;;4.67;69.65;100084.09;3133762;28;20101;-69
2023/12/30 01:11:21;;;;;;;53.33;24.65;;;;;;;4.51;69.70;100052.56;3133771;28;20052;-69
2023/12/30 01:12:52;;;;;;;57.05;25.73;;;;;;;4.64;69.90;100078.16;3133290;28;20045;-68
2023/12/30 01:14:24;;;;;;;50.22;23.73;;;;;;;4.64;69.82;100073.00;3133127;28;20165;-68
2023/12/30 01:15:56;;;;;;;45.55;22.63;;;;;;;4.66;69.69;100076.41;3133343;28;20056;-66
2023/12/30 01:17:28;;;;;;;56.55;24.10;;;;;;;4.65;69.98;100072.13;3133429;28;20123;-67
2023/12/30 01:18:59;;;;;;;53.55;23.48;;;;;;;4.62;69.98;100078.19;3133087;28;20481;-67
2023/12/30 01:20:30;;;;;;;55.40;22.88;;;;;;;4.63;69.90;100073.88;3132878;28;20057;-67
2023/12/30 01:22:02;;;;;;;48.13;22.63;;;;;;;4.62;69.94;100078.19;3133127;28;20402;-66
2023/12/30 01:23:33;;;;;;;50.75;23.20;;;;;;;4.61;70.03;100075.63;3133357;28;20510;-67
2023/12/30 01:25:06;;;;;;;44.00;21.08;;;;;;;4.26;70.07;100018.59;3133076;28;20073;-67
2023/12/30 01:26:37;;;;;;;53.00;21.58;;;;;;;4.58;70.19;100073.94;3133093;28;20052;-67
2023/12/30 01:28:10;;;;;;;50.88;21.73;;;;;;;4.60;70.09;100077.34;3132868;28;20445;-67
2023/12/30 01:29:40;;;;;;;49.20;23.00;;;;;;;4.58;70.20;100071.34;3133342;28;20631;-67
2023/12/30 01:31:16;;;;;;;45.65;20.58;;;;;;;4.59;70.01;100070.50;3132963;28;20060;-66
2023/12/30 01:32:47;;;;;;;45.28;20.63;;;;;;;4.59;70.11;100069.66;3133142;28;20068;-67
2023/12/30 01:34:18;;;;;;;48.42;21.27;;;;;;;4.59;70.03;100075.66;3133027;28;20057;-67
2023/12/30 01:35:49;;;;;;;46.38;20.98;;;;;;;4.57;69.95;100067.09;3137466;28;20045;-66
2023/12/30 01:37:21;;;;;;;47.40;20.83;;;;;;;4.55;70.02;100063.66;3133017;28;20541;-67
2023/12/30 01:38:53;;;;;;;49.03;20.88;;;;;;;4.54;69.95;100062.81;3132938;28;20076;-66
2023/12/30 01:40:25;;;;;;;47.47;21.55;;;;;;;4.52;69.99;100068.88;3132864;28;20097;-67
2023/12/30 01:41:56;;;;;;;54.70;23.55;;;;;;;4.48;69.97;100073.25;3132398;28;20068;-67
2023/12/30 01:43:29;;;;;;;57.90;24.55;;;;;;;4.42;70.10;100067.34;3132417;28;20049;-67
2023/12/30 01:45:01;;;;;;;51.13;23.48;;;;;;;4.33;70.29;100073.50;3132807;28;20049;-67
2023/12/30 01:46:33;;;;;;;49.47;23.75;;;;;;;4.27;70.52;100074.44;3132753;28;20051;-66
2023/12/30 01:48:05;;;;;;;52.17;23.23;;;;;;;4.24;70.68;100065.91;3133104;28;20092;-67
2023/12/30 01:49:36;;;;;;;49.83;23.27;;;;;;;4.24;70.69;100061.59;3132866;28;20041;-67
2023/12/30 01:51:08;;;;;;;50.17;22.48;;;;;;;4.26;70.66;100064.13;3132820;28;20700;-67
2023/12/30 01:52:39;;;;;;;55.47;23.17;;;;;;;4.27;70.59;100058.13;3132817;28;20442;-67
2023/12/30 01:54:11;;;;;;;52.30;23.95;;;;;;;4.27;70.46;100053.81;3132565;28;20550;-66
2023/12/30 01:55:42;;;;;;;55.63;23.40;;;;;;;4.27;70.40;100051.22;3132814;28;20445;-67
2023/12/30 01:57:14;;;;;;;43.45;21.60;;;;;;;4.29;70.44;100048.63;3132745;28;20056;-67
2023/12/30 01:58:45;;;;;;;50.45;22.58;;;;;;;4.30;70.41;100050.34;3132405;28;20057;-66
2023/12/30 02:00:19;;;;;;;52.47;22.88;;;;;;;4.31;70.38;100047.72;3132667;28;20056;-67
2023/12/30 02:01:55;;;;;;;47.03;21.60;;;;;;;4.32;70.32;100046.84;3132662;28;20049;-67
2023/12/30 02:03:26;;;;;;;50.50;22.42;;;;;;;4.33;70.29;100043.41;3132532;28;20052;-67
2023/12/30 02:04:58;;;;;;;49.42;22.02;;;;;;;4.31;70.23;100045.13;3132721;28;20442;-66
2023/12/30 02:06:29;;;;;;;52.65;22.27;;;;;;;4.32;70.30;100040.84;3132402;28;20052;-66
2023/12/30 02:08:01;;;;;;;47.45;21.35;;;;;;;4.31;70.22;100036.56;3132531;28;20553;-67
2023/12/30 02:09:32;;;;;;;47.67;20.85;;;;;;;4.32;70.31;100038.28;3132609;28;20445;-68
2023/12/30 02:11:04;;;;;;;49.58;22.60;;;;;;;4.31;70.36;100045.13;3132662;28;20048;-68
2023/12/30 02:12:35;;;;;;;39.83;20.02;;;;;;;4.31;70.36;100045.13;3132379;28;20055;-68
2023/12/30 02:14:25;;;;;;;50.58;21.80;;;;;;;4.29;70.27;100041.75;3132412;28;20051;-67
2023/12/30 02:15:56;;;;;;;45.97;19.88;;;;;;;4.27;70.60;100038.34;3132364;28;20151;-66
2023/12/30 02:17:29;;;;;;;48.13;21.20;;;;;;;4.28;70.50;100031.44;3132512;28;20098;-66
2023/12/30 02:19:00;;;;;;;46.15;20.80;;;;;;;4.26;70.43;100035.75;3132420;28;20055;-67
2023/12/30 02:20:33;;;;;;;45.60;20.25;;;;;;;4.20;70.54;100031.59;3132240;28;20458;-66
2023/12/30 02:22:03;;;;;;;;;;;;;;;4.13;70.65;100042.84;3133004;28;20056;-66
2023/12/30 02:23:37;;;;;;;44.55;20.38;;;;;;;4.17;70.74;100044.53;3132525;28;19921;-66
2023/12/30 02:25:08;;;;;;;45.97;19.23;;;;;;;4.19;70.65;100041.91;3132300;28;20053;-65
2023/12/30 02:26:40;;;;;;;49.15;19.88;;;;;;;4.21;70.57;100048.75;3132325;28;20056;-68
2023/12/30 02:28:12;;;;;;;47.15;21.27;;;;;;;4.23;70.68;100047.00;3132308;28;20060;-68
2023/12/30 02:29:44;;;;;;;53.65;22.08;;;;;;;4.24;70.63;100046.13;3132275;28;20386;-65
2023/12/30 02:31:16;;;;;;;47.67;21.77;;;;;;;4.22;70.63;100050.44;3132236;28;20049;-66
2023/12/30 02:32:47;;;;;;;46.85;21.55;;;;;;;4.23;70.64;100041.84;3132394;28;20041;-66
2023/12/30 02:34:19;;;;;;;47.65;20.50;;;;;;;4.24;70.54;100053.00;3132352;28;20049;-65
2023/12/30 02:35:50;;;;;;;67.07;22.03;;;;;;;4.20;70.63;100049.63;3135949;28;20381;-66
2023/12/30 02:37:22;;;;;;;49.80;20.50;;;;;;;4.17;70.57;100046.22;3131983;28;20314;-67
2023/12/30 02:38:54;;;;;;;42.78;19.85;;;;;;;4.19;70.55;100060.78;3132145;28;20045;-66
2023/12/30 02:40:26;;;;;;;42.72;19.33;;;;;;;4.17;70.56;100060.00;3132339;28;20497;-67
2023/12/30 02:41:56;;;;;;;51.08;20.73;;;;;;;4.16;70.55;100058.25;3132191;28;20380;-67
2023/12/30 02:43:28;;;;;;;40.92;19.75;;;;;;;4.14;70.58;100062.63;3131289;28;20060;-66
2023/12/30 02:45:01;;;;;;;47.17;21.63;;;;;;;4.10;70.54;100050.63;3132304;28;20060;-66
2023/12/30 02:46:32;;;;;;;45.50;20.77;;;;;;;4.09;70.54;100062.66;3120175;28;20133;-68
2023/12/30 02:48:05;;;;;;;43.30;20.50;;;;;;;4.10;70.44;100064.34;3131638;28;20712;-67
2023/12/30 02:49:36;;;;;;;44.13;21.73;;;;;;;4.09;70.52;100070.41;3132157;28;20045;-68
2023/12/30 02:51:08;;;;;;;51.63;21.30;;;;;;;4.09;70.46;100061.81;3132217;28;20525;-68
2023/12/30 02:52:39;;;;;;;51.63;21.45;;;;;;;4.08;70.48;100060.09;3131463;28;20049;-67
2023/12/30 02:54:11;;;;;;;46.25;20.70;;;;;;;4.08;70.52;100055.81;3132045;28;20060;-66
2023/12/30 02:55:43;;;;;;;40.83;20.35;;;;;;;4.07;70.46;100055.81;3132257;28;20049;-68
2023/12/30 02:57:14;;;;;;;46.53;20.27;;;;;;;3.79;70.62;100015.00;3132172;28;20057;-67
2023/12/30 02:58:46;;;;;;;45.83;20.13;;;;;;;4.06;70.61;100059.28;3132103;28;20049;-68
2023/12/30 03:00:18;;;;;;;40.95;19.10;;;;;;;4.06;70.44;100060.13;3131969;28;20041;-68
2023/12/30 03:01:49;;;;;;;40.80;19.75;;;;;;;4.04;70.65;100059.28;3131808;28;20075;-67
2023/12/30 03:03:21;;;;;;;41.03;20.15;;;;;;;4.03;70.63;100059.34;3132181;28;20619;-67
2023/12/30 03:04:52;;;;;;;42.75;20.27;;;;;;;4.02;70.63;100061.06;3132066;28;20049;-68
2023/12/30 03:06:24;;;;;;;37.85;18.73;;;;;;;4.02;70.77;100060.19;3131893;28;20053;-67
2023/12/30 03:07:57;;;;;;;44.58;20.50;;;;;;;4.01;70.76;100068.78;3132010;28;20064;-68
2023/12/30 03:09:30;;;;;;;37.80;18.45;;;;;;;4.02;70.68;100073.06;3132062;28;20045;-68
2023/12/30 03:11:03;;;;;;;41.72;18.35;;;;;;;4.01;70.71;100081.69;3132131;28;20051;-67
2023/12/30 03:12:35;;;;;;;40.08;18.25;;;;;;;4.01;70.83;100069.66;3132459;28;20059;-68
2023/12/30 03:14:06;;;;;;;41.60;18.98;;;;;;;3.54;70.74;99993.88;3132110;28;20052;-67
2023/12/30 03:15:37;;;;;;;43.03;17.92;;;;;;;4.02;70.87;100062.75;3132102;28;20049;-66
2023/12/30 03:17:08;;;;;;;42.33;18.77;;;;;;;4.01;70.85;100061.06;3131851;28;20628;-67
2023/12/30 03:18:40;;;;;;;41.90;19.88;;;;;;;4.02;70.79;100062.75;3132153;28;20056;-66
2023/12/30 03:20:11;;;;;;;42.95;19.27;;;;;;;4.00;70.78;100064.53;3131578;28;20162;-64
2023/12/30 03:21:44;;;;;;;41.60;18.05;;;;;;;4.00;70.65;100067.09;3131930;28;20056;-67
2023/12/30 03:23:15;;;;;;;37.30;19.13;;;;;;;3.97;70.71;100062.00;3132047;28;20118;-67
2023/12/30 03:24:48;;;;;;;41.65;18.58;;;;;;;3.94;70.65;100057.72;3131961;28;20135;-67
2023/12/30 03:26:19;;;;;;;39.63;18.42;;;;;;;3.95;70.63;100071.47;3132159;28;20459;-67
2023/12/30 03:27:51;;;;;;;43.97;18.80;;;;;;;3.95;70.57;100071.47;3131788;28;20040;-67
2023/12/30 03:29:23;;;;;;;35.63;17.77;;;;;;;3.96;70.92;100073.16;3131838;28;20053;-67
2023/12/30 03:30:54;;;;;;;40.05;18.42;;;;;;;3.96;70.88;100070.56;3131737;28;20494;-67
2023/12/30 03:32:25;;;;;;;43.70;19.05;;;;;;;3.94;70.71;100065.47;3132056;28;20151;-67
2023/12/30 03:33:56;;;;;;;38.85;17.95;;;;;;;3.96;70.74;100068.84;3131885;28;20510;-66
2023/12/30 03:35:28;;;;;;;37.58;17.65;;;;;;;3.95;70.72;100069.72;3135931;28;20053;-67
2023/12/30 03:37:00;;;;;;;45.47;19.08;;;;;;;3.94;70.71;100065.47;3131872;28;20048;-68
2023/12/30 03:38:31;;;;;;;41.60;19.05;;;;;;;3.95;70.75;100066.31;3131345;28;20049;-66
2023/12/30 03:40:05;;;;;;;41.30;19.05;;;;;;;3.95;70.71;100067.16;3119747;28;20057;-66
2023/12/30 03:41:36;;;;;;;40.90;18.58;;;;;;;3.93;70.71;100068.91;3119628;28;20049;-66
2023/12/30 03:43:08;;;;;;;42.70;19.67;;;;;;;3.93;70.66;100068.91;3131368;28;20056;-66
2023/12/30 03:44:38;;;;;;;42.53;18.67;;;;;;;3.92;70.67;100072.34;3131731;28;20045;-66
2023/12/30 03:46:10;;;;;;;48.03;19.02;;;;;;;3.91;70.64;100069.81;3131866;28;20158;-67
2023/12/30 03:47:42;;;;;;;38.40;17.50;;;;;;;3.91;70.79;100080.13;3131614;28;20053;-67
2023/12/30 03:49:14;;;;;;;37.65;17.80;;;;;;;3.90;70.76;100070.66;3131867;28;20045;-67
2023/12/30 03:50:45;;;;;;;33.67;16.30;;;;;;;3.89;70.69;100072.41;3131661;28;20068;-67
2023/12/30 03:52:17;;;;;;;34.45;16.52;;;;;;;3.88;70.91;100071.56;3131689;28;20045;-67
2023/12/30 03:53:47;;;;;;;41.47;17.75;;;;;;;3.91;70.79;100074.97;3131781;28;20044;-66
2023/12/30 03:55:21;;;;;;;36.88;18.35;;;;;;;3.92;70.92;100076.66;3131805;28;20528;-67
2023/12/30 03:56:54;;;;;;;;;;;;;;;3.79;71.07;100083.72;3132155;28;20172;-66
2023/12/30 03:58:25;;;;;;;38.95;16.80;;;;;;;3.82;71.04;100087.09;3131842;28;19920;-67
2023/12/30 03:59:57;;;;;;;44.95;19.15;;;;;;;3.85;70.91;100081.91;3131636;28;20524;-67
2023/12/30 04:01:28;;;;;;;36.38;17.60;;;;;;;3.87;70.90;100082.75;3131739;28;20049;-66
2023/12/30 04:02:59;;;;;;;38.75;17.98;;;;;;;3.88;70.77;100083.59;3131893;28;20059;-67
2023/12/30 04:04:31;;;;;;;41.17;16.88;;;;;;;3.85;71.05;100087.03;3133219;28;20045;-68
2023/12/30 04:06:02;;;;;;;37.45;18.05;;;;;;;3.84;70.98;100075.03;3134063;28;20056;-67
2023/12/30 04:07:33;;;;;;;40.75;18.30;;;;;;;3.85;71.05;100089.63;3134106;28;20049;-68
2023/12/30 04:09:04;;;;;;;41.28;18.70;;;;;;;3.86;71.16;100081.00;3134147;28;20064;-68
2023/12/30 04:10:38;;;;;;;36.80;18.08;;;;;;;3.87;71.03;100080.16;3134034;28;20541;-67
2023/12/30 04:12:09;;;;;;;37.75;18.27;;;;;;;3.86;71.08;100078.44;3134206;28;20052;-67
2023/12/30 04:13:41;;;;;;;37.85;18.15;;;;;;;3.86;70.96;100080.16;3133765;28;20543;-68
2023/12/30 04:15:12;;;;;;;38.65;17.92;;;;;;;3.84;71.12;100085.31;3133884;28;20057;-68
2023/12/30 04:16:44;;;;;;;41.03;18.05;;;;;;;3.83;71.06;100073.31;3134035;28;20132;-68
2023/12/30 04:18:15;;;;;;;40.13;18.52;;;;;;;3.83;70.88;100083.63;3134090;28;20533;-67
2023/12/30 04:19:46;;;;;;;34.38;16.67;;;;;;;3.82;70.96;100089.66;3134002;28;20064;-67
2023/12/30 04:21:17;;;;;;;37.50;17.63;;;;;;;3.81;71.00;100087.94;3133847;28;20060;-68
2023/12/30 04:22:49;;;;;;;41.42;17.92;;;;;;;3.79;71.12;100092.28;3133758;28;20437;-67
2023/12/30 04:24:21;;;;;;;34.20;15.95;;;;;;;3.80;70.99;100093.97;3133838;28;20510;-67
2023/12/30 04:25:54;;;;;;;40.20;16.58;;;;;;;3.80;71.02;100093.13;3133751;28;20190;-68
2023/12/30 04:27:24;;;;;;;37.83;17.23;;;;;;;3.77;71.03;100085.44;3133611;28;20064;-67
2023/12/30 04:28:56;;;;;;;41.03;17.27;;;;;;;3.77;71.18;100088.88;3133814;28;20045;-67
2023/12/30 04:30:27;;;;;;;37.80;17.95;;;;;;;3.74;71.05;100083.75;3133733;28;20053;-68
2023/12/30 04:31:59;;;;;;;42.22;18.73;;;;;;;3.73;71.09;100087.22;3133847;28;20450;-67
2023/12/30 04:33:29;;;;;;;50.42;19.50;;;;;;;3.72;71.06;100082.06;3133876;28;20053;-68
2023/12/30 04:35:03;;;;;;;38.03;18.02;;;;;;;3.69;71.19;100088.09;3133830;28;20045;-68
2023/12/30 04:36:35;;;;;;;37.47;17.58;;;;;;;3.63;71.41;100080.44;3133614;28;20048;-67
2023/12/30 04:38:06;;;;;;;39.67;18.65;;;;;;;3.63;71.34;100083.88;3133589;28;20125;-67
2023/12/30 04:39:37;;;;;;;40.42;17.35;;;;;;;3.63;71.31;100088.19;3133552;28;20728;-67
2023/12/30 04:41:09;;;;;;;39.80;18.23;;;;;;;3.62;71.26;100089.91;3133669;28;20064;-67
2023/12/30 04:42:41;;;;;;;42.58;17.92;;;;;;;3.63;71.33;100098.47;3133195;28;20502;-67
2023/12/30 04:44:12;;;;;;;35.80;17.98;;;;;;;3.63;71.36;100093.31;3133376;28;20064;-68
2023/12/30 04:45:44;;;;;;;42.25;18.75;;;;;;;3.63;71.26;100090.75;3133410;28;20041;-67
2023/12/30 04:47:14;;;;;;;35.55;18.70;;;;;;;3.61;71.33;100089.94;3133626;28;20118;-67
2023/12/30 04:48:48;;;;;;;45.60;19.65;;;;;;;3.61;71.39;100087.38;3133687;28;20482;-67
2023/12/30 04:50:19;;;;;;;41.78;18.75;;;;;;;3.59;71.32;100086.53;3133149;28;20131;-67
2023/12/30 04:51:51;;;;;;;40.88;17.77;;;;;;;3.56;71.33;100084.84;3133743;28;20147;-68
2023/12/30 04:53:22;;;;;;;38.40;19.25;;;;;;;3.55;71.32;100083.13;3133659;28;20055;-68
2023/12/30 04:54:54;;;;;;;41.60;19.60;;;;;;;3.50;71.40;100071.19;3133340;28;20080;-68
2023/12/30 04:56:26;;;;;;;35.80;18.73;;;;;;;3.56;71.32;100089.97;3133513;28;20053;-67
2023/12/30 04:57:57;;;;;;;44.75;20.02;;;;;;;3.55;71.30;100093.44;3133707;28;20506;-67
2023/12/30 04:59:28;;;;;;;41.72;18.45;;;;;;;3.17;71.40;100034.69;3133357;28;20437;-67
2023/12/30 05:01:00;;;;;;;42.28;20.15;;;;;;;3.52;71.48;100090.03;3133162;28;20053;-67
2023/12/30 05:02:31;;;;;;;41.65;18.35;;;;;;;3.52;71.48;100090.03;3133335;28;20446;-66
2023/12/30 05:04:03;;;;;;;42.13;19.17;;;;;;;3.51;71.43;100086.59;3133241;28;20045;-66
2023/12/30 05:05:34;;;;;;;42.08;19.58;;;;;;;3.51;71.46;100096.06;3133186;28;20053;-67
2023/12/30 05:07:05;;;;;;;42.90;19.70;;;;;;;3.52;71.41;100087.44;3133210;28;20055;-66
2023/12/30 05:08:36;;;;;;;42.08;18.92;;;;;;;3.49;71.50;100085.78;3133248;28;20052;-67
2023/12/30 05:10:10;;;;;;;38.38;17.73;;;;;;;3.51;71.44;100086.59;3133272;28;20522;-66
2023/12/30 05:11:45;;;;;;;42.70;19.05;;;;;;;3.50;71.44;100095.22;3133275;28;20099;-66
2023/12/30 05:13:17;;;;;;;44.08;19.95;;;;;;;3.49;71.54;100084.91;3133121;28;20045;-67
2023/12/30 05:14:48;;;;;;;44.65;20.23;;;;;;;3.47;71.59;100095.25;3133495;28;20063;-67
2023/12/30 05:16:20;;;;;;;35.72;17.77;;;;;;;3.44;71.68;100102.16;3132385;28;20457;-67
2023/12/30 05:17:53;;;;;;;45.53;20.48;;;;;;;3.41;71.63;100098.75;3133548;28;20048;-66
2023/12/30 05:19:24;;;;;;;43.65;19.80;;;;;;;3.42;71.74;100100.44;3133089;28;20470;-66
2023/12/30 05:20:56;;;;;;;44.35;20.67;;;;;;;3.41;71.84;100105.63;3132943;28;20052;-66
2023/12/30 05:22:27;;;;;;;46.35;21.13;;;;;;;3.36;71.87;100100.50;3133169;28;20045;-66
2023/12/30 05:23:58;;;;;;;51.83;21.60;;;;;;;3.37;71.76;100102.22;3133316;28;20068;-66
2023/12/30 05:25:29;;;;;;;46.60;21.23;;;;;;;3.40;71.95;100097.03;3133115;28;20251;-67
2023/12/30 05:27:02;;;;;;;45.33;20.95;;;;;;;3.38;71.96;100106.50;3133242;28;20528;-67
2023/12/30 05:28:33;;;;;;;45.05;20.95;;;;;;;3.38;71.88;100103.94;3132953;28;20438;-67
2023/12/30 05:30:07;;;;;;;41.22;19.88;;;;;;;3.38;71.77;100111.66;3132945;28;20060;-67
2023/12/30 05:31:37;;;;;;;38.10;19.42;;;;;;;3.38;71.74;100116.78;3132852;28;20106;-67
2023/12/30 05:33:09;;;;;;;52.53;21.67;;;;;;;3.38;71.86;100111.66;3133243;28;20552;-67
2023/12/30 05:34:40;;;;;;;45.13;20.45;;;;;;;3.39;71.77;100121.06;3132895;28;20532;-67
2023/12/30 05:36:12;;;;;;;41.33;19.48;;;;;;;3.39;71.74;100120.22;3133989;28;20052;-67
2023/12/30 05:37:43;;;;;;;41.72;21.42;;;;;;;3.36;71.69;100118.53;3133095;28;20445;-67
2023/12/30 05:39:15;;;;;;;42.83;20.80;;;;;;;3.37;71.52;100116.78;3132849;28;20049;-67
2023/12/30 05:40:46;;;;;;;44.55;21.88;;;;;;;3.35;71.57;100121.97;3132859;28;20488;-67
2023/12/30 05:42:19;;;;;;;48.75;21.63;;;;;;;3.36;71.59;100118.53;3132615;28;20108;-67
2023/12/30 05:43:51;;;;;;;43.30;20.20;;;;;;;3.33;71.51;100121.13;3132763;28;20112;-67
2023/12/30 05:45:22;;;;;;;46.72;20.85;;;;;;;3.34;71.50;100124.56;3133041;28;20044;-68
2023/12/30 05:46:54;;;;;;;42.03;20.55;;;;;;;3.34;71.30;100129.69;3132904;28;20553;-67
2023/12/30 05:48:25;;;;;;;45.33;19.80;;;;;;;3.34;71.38;100122.84;3132838;28;20049;-67
2023/12/30 05:49:57;;;;;;;45.33;21.40;;;;;;;3.30;71.35;100118.59;3133021;28;20125;-68
2023/12/30 05:51:27;;;;;;;45.03;20.75;;;;;;;3.32;71.37;100124.59;3132759;28;20045;-66
2023/12/30 05:53:01;;;;;;;53.42;22.02;;;;;;;3.33;71.36;100133.16;3132953;28;20059;-67
2023/12/30 05:54:32;;;;;;;44.45;20.30;;;;;;;3.30;71.38;100128.03;3132783;28;20072;-67
2023/12/30 05:56:04;;;;;;;41.97;20.75;;;;;;;3.31;71.36;100129.72;3132664;28;20535;-66
2023/12/30 05:57:36;;;;;;;42.33;20.20;;;;;;;3.30;71.46;100130.63;3132858;28;20667;-68
2023/12/30 05:59:08;;;;;;;40.70;19.10;;;;;;;3.26;71.42;100124.66;3132691;28;20049;-68
2023/12/30 06:00:39;;;;;;;47.70;20.48;;;;;;;3.23;71.55;100127.25;3132552;28;20433;-68
2023/12/30 06:02:11;;;;;;;42.80;20.67;;;;;;;3.20;71.59;100124.72;3132693;28;20118;-66
2023/12/30 06:03:41;;;;;;;45.00;19.38;;;;;;;3.21;71.69;100126.41;3132771;28;20060;-66
2023/12/30 06:05:13;;;;;;;37.33;19.48;;;;;;;3.16;71.74;100117.88;3132417;28;20087;-66
2023/12/30 06:06:44;;;;;;;43.67;19.05;;;;;;;3.24;71.64;100123.81;3132672;28;20051;-67
2023/12/30 06:08:17;;;;;;;39.72;19.05;;;;;;;3.28;71.66;100128.03;3132588;28;20128;-66
2023/12/30 06:09:48;;;;;;;43.38;20.75;;;;;;;3.28;71.64;100120.31;3132608;28;20459;-66
2023/12/30 06:11:19;;;;;;;41.30;19.45;;;;;;;3.34;71.55;100130.59;3132760;28;20037;-67
2023/12/30 06:12:52;;;;;;;44.92;19.23;;;;;;;3.37;71.43;100130.53;3132591;28;20064;-67
2023/12/30 06:14:23;;;;;;;42.28;20.45;;;;;;;3.39;71.32;100122.78;3132443;28;20186;-66
2023/12/30 06:15:56;;;;;;;45.25;19.63;;;;;;;3.45;71.44;100138.16;3132570;28;20079;-68
2023/12/30 06:17:28;;;;;;;49.40;21.70;;;;;;;3.48;71.49;100140.72;3132640;28;20133;-67
2023/12/30 06:18:59;;;;;;;48.42;22.88;;;;;;;3.52;71.42;100141.53;3132580;28;20055;-67
2023/12/30 06:20:31;;;;;;;45.38;21.00;;;;;;;3.57;71.34;100140.59;3132337;28;20465;-67
2023/12/30 06:22:01;;;;;;;43.17;21.10;;;;;;;3.62;71.29;100144.00;3132316;28;20068;-67
2023/12/30 06:23:33;;;;;;;46.88;22.55;;;;;;;3.68;71.33;100140.50;3132375;28;20056;-67
2023/12/30 06:25:04;;;;;;;44.55;20.42;;;;;;;3.72;71.21;100139.56;3132418;28;20594;-67
2023/12/30 06:26:37;;;;;;;45.08;21.48;;;;;;;3.78;71.33;100144.66;3132622;28;20056;-67
2023/12/30 06:28:10;;;;;;;40.08;20.88;;;;;;;3.84;71.15;100142.00;3131941;28;20057;-67
2023/12/30 06:29:41;;;;;;;47.22;21.75;;;;;;;3.87;71.04;100141.13;3132451;28;20072;-67
2023/12/30 06:31:12;;;;;;;45.25;19.92;;;;;;;3.94;71.05;100140.19;3132151;28;20053;-67
2023/12/30 06:32:44;;;;;;;43.55;20.60;;;;;;;4.00;71.07;100137.53;3132441;28;20051;-67
2023/12/30 06:34:14;;;;;;;44.53;22.33;;;;;;;4.06;70.94;100141.75;3132322;28;20059;-67
2023/12/30 06:35:46;;;;;;;43.28;20.90;;;;;;;4.16;70.92;100142.47;3132719;28;20399;-66
2023/12/30 06:37:17;;;;;;;47.45;20.88;;;;;;;4.24;70.75;100135.50;3132257;28;20068;-67
2023/12/30 06:38:49;;;;;;;42.67;20.38;;;;;;;4.30;70.56;100131.09;3132340;28;20502;-67
2023/12/30 06:40:19;;;;;;;47.75;21.77;;;;;;;4.44;70.42;100137.81;3132145;28;20049;-68
2023/12/30 06:41:51;;;;;;;43.78;21.20;;;;;;;4.51;70.26;100135.09;3132293;28;20076;-67
2023/12/30 06:43:23;;;;;;;51.17;22.10;;;;;;;4.62;69.99;100139.25;3132047;28;20048;-67
2023/12/30 06:44:55;;;;;;;43.05;20.58;;;;;;;4.70;69.75;100146.00;3132376;28;20536;-67
2023/12/30 06:46:26;;;;;;;46.17;21.88;;;;;;;4.77;69.53;100144.16;3132612;28;20049;-67
2023/12/30 06:47:58;;;;;;;43.08;20.55;;;;;;;4.83;69.37;100140.63;3132497;28;20045;-67
2023/12/30 06:49:28;;;;;;;44.80;21.45;;;;;;;4.90;69.14;100143.06;3132341;28;20053;-67
2023/12/30 06:51:02;;;;;;;47.65;22.42;;;;;;;4.97;69.10;100136.09;3131969;28;20052;-67
2023/12/30 06:52:34;;;;;;;51.10;24.65;;;;;;;5.04;68.79;100145.44;3132524;28;20061;-67
2023/12/30 06:54:07;;;;;;;51.50;23.27;;;;;;;4.34;68.57;100031.34;3132056;28;20061;-67
2023/12/30 06:55:37;;;;;;;44.53;22.42;;;;;;;5.17;68.55;100151.22;3132360;28;20052;-67
2023/12/30 06:57:09;;;;;;;52.28;23.42;;;;;;;5.23;68.44;100152.00;3132288;28;20056;-67
2023/12/30 06:58:45;;;;;;;45.78;22.58;;;;;;;5.32;68.23;100150.94;3131965;28;20047;-67
2023/12/30 07:00:17;;;;;;;49.40;23.98;;;;;;;5.38;68.04;100144.81;3131990;28;20114;-67
2023/12/30 07:01:50;;;;;;;51.83;23.77;;;;;;;5.45;67.95;100151.59;3131939;28;20055;-67